ADDS METAR Data INFO
IDs: Format: Raw Decoded Include TAF

Data at: 0429 UTC 28 Jul 2017

KSNK 280415Z AUTO 14007KT 10SM CLR 29/14 A3001 RMK AO2 T02940140
KSNK 280355Z AUTO 14006KT 10SM CLR 30/14 A3001 RMK AO2 T02980140
KSNK 280335Z AUTO 14006KT 10SM CLR 30/14 A3000 RMK AO2 T03010140
KSNK 280315Z AUTO 13005KT 10SM CLR 31/14 A2999 RMK AO2 T03050140
KSNK 280255Z AUTO 12005KT 10SM CLR 31/14 A2999 RMK AO2 T03120140
KSNK 280235Z AUTO 13005KT 10SM CLR 32/14 A2997 RMK AO2 T03190139
KSNK 280215Z AUTO 12006KT 10SM CLR 33/14 A2997 RMK AO2 T03280138
KSNK 280155Z AUTO 13009KT 10SM CLR 34/14 A2996 RMK AO2 T03350141
KSNK 280135Z AUTO 13009KT 10SM CLR 34/14 A2995 RMK AO2 T03420139
KSNK 280115Z AUTO 14009KT 10SM CLR 35/14 A2995 RMK AO2 T03470136
KSNK 280055Z AUTO 14013G16KT 10SM CLR 35/14 A2995 RMK AO2 T03500135
KSNK 280035Z AUTO 14009G16KT 10SM CLR 35/13 A2995 RMK AO2 T03520134
KSNK 280015Z AUTO 13011G17KT 10SM CLR 35/13 A2995 RMK AO2 T03530133
KSNK 272355Z AUTO 14011G15KT 10SM CLR 36/13 A2995 RMK AO2 T03560133
KSNK 272335Z AUTO 15011KT 10SM CLR 36/14 A2996 RMK AO2 T03600135
KSNK 272315Z AUTO 14009KT 10SM CLR 36/14 A2997 RMK AO2 T03600135
KSNK 272255Z AUTO 13008G15KT 10SM CLR 36/14 A2997 RMK AO2 T03590136
KSNK 272235Z AUTO 15009KT 130V190 10SM SCT090 36/14 A2998 RMK AO2 T03590138
KSNK 272215Z AUTO 19010G17KT 10SM SCT090 36/14 A2998 RMK AO2 T03610141
KSNK 272155Z AUTO 13008G14KT 10SM CLR 36/14 A2999 RMK AO2 T03590136
KSNK 272135Z AUTO 13003G16KT 10SM SCT095 36/13 A3000 RMK AO2 LTG DSNT S T03640132
KSNK 272115Z AUTO 09012KT 10SM SCT095 37/13 A3001 RMK AO2 T03650130
KSNK 272055Z AUTO 20009G15KT 10SM SCT095 36/13 A3002 RMK AO2 T03610130
KSNK 272035Z AUTO 15008G14KT 100V170 10SM CLR 36/13 A3003 RMK AO2 T03610130
KSNK 272015Z AUTO 12007KT 10SM CLR 36/14 A3003 RMK AO2 T03620136
KSNK 271955Z AUTO 14009G14KT 10SM CLR 35/14 A3004 RMK AO2 T03540135
KSNK 271935Z AUTO 14011G15KT 10SM CLR 35/14 A3005 RMK AO2 T03520136
KSNK 271915Z AUTO 14006KT 10SM CLR 35/14 A3006 RMK AO2 T03500141
KSNK 271855Z AUTO 12007KT 10SM CLR 34/14 A3007 RMK AO2 T03420135
KSNK 271835Z AUTO 17007G14KT 10SM CLR 34/14 A3008 RMK AO2 T03420136
KSNK 271815Z AUTO 14009KT 10SM CLR 34/14 A3009 RMK AO2 T03380144
KSNK 271755Z AUTO 16007G10KT 10SM CLR 34/15 A3009 RMK AO2 T03360149
KSNK 271735Z AUTO 20007G15KT 10SM CLR 33/15 A3010 RMK AO2 T03280152
KSNK 271715Z AUTO 18009KT 10SM CLR 32/16 A3011 RMK AO2 T03220160
KSNK 271655Z AUTO 16003KT 10SM CLR 32/16 A3011 RMK AO2 T03170160
KSNK 271635Z AUTO 20009KT 10SM CLR 31/16 A3012 RMK AO2 T03140162
KSNK 271615Z AUTO 20009KT 10SM CLR 30/16 A3012 RMK AO2 T03040163
KSNK 271555Z AUTO 20009KT 10SM CLR 30/16 A3012 RMK AO2 T03010164
KSNK 271535Z AUTO 20009G14KT 10SM CLR 29/17 A3012 RMK AO2 T02930166
KSNK 271515Z AUTO 20011KT 10SM CLR 28/17 A3011 RMK AO2 T02840169
KSNK 271455Z AUTO 20008KT 10SM CLR 28/17 A3011 RMK AO2 T02770170
KSNK 271435Z AUTO 21009KT 10SM CLR 27/17 A3011 RMK AO2 T02680170
KSNK 271415Z AUTO 20009KT 10SM CLR 26/17 A3010 RMK AO2 T02620171
KSNK 271355Z AUTO 19007KT 10SM CLR 25/17 A3010 RMK AO2 T02540170
KSNK 271335Z AUTO 19009KT 10SM CLR 25/17 A3009 RMK AO2 T02490170
KSNK 271315Z AUTO 20007KT 10SM CLR 24/17 A3010 RMK AO2 T02430168
KSNK 271255Z AUTO 20007KT 10SM CLR 24/17 A3009 RMK AO2 T02350166
KSNK 271235Z AUTO 19006KT 10SM CLR 23/17 A3009 RMK AO2 T02300165
KSNK 271215Z AUTO 18006KT 10SM CLR 23/17 A3009 RMK AO2 T02280165
KSNK 271155Z AUTO 19005KT 10SM CLR 23/17 A3009 RMK AO2 T02260166
KSNK 271135Z AUTO 19005KT 10SM CLR 23/17 A3009 RMK AO2 T02300166
KSNK 271115Z AUTO 20005KT 10SM CLR 24/17 A3009 RMK AO2 T02360167
KSNK 271055Z AUTO 19005KT 10SM CLR 24/17 A3008 RMK AO2 T02420168
KSNK 271040Z AUTO 19005KT 10SM CLR 25/17 A3008 RMK AO2 T02470169
KSNK 271015Z AUTO 19007KT 10SM CLR 25/17 A3007 RMK AO2 T02530170
KSNK 270955Z AUTO 19008KT 10SM CLR 26/17 A3006 RMK AO2 T02550167
KSNK 270935Z AUTO 18012G15KT 10SM CLR 25/16 A3006 RMK AO2 T02530161
KSNK 270915Z AUTO 17009KT 10SM CLR 25/15 A3005 RMK AO2 T02520154
KSNK 270855Z AUTO 17009KT 10SM CLR 25/15 A3005 RMK AO2 T02520151
KSNK 270835Z AUTO 17008KT 10SM CLR 25/15 A3005 RMK AO2 T02500149
KSNK 270815Z AUTO 17007KT 10SM CLR 25/15 A3005 RMK AO2 T02470147
KSNK 270755Z AUTO 17005KT 10SM CLR 25/15 A3005 RMK AO2 T02490147
KSNK 270735Z AUTO 17006KT 10SM CLR 26/15 A3005 RMK AO2 T02550145
KSNK 270715Z AUTO 16006KT 10SM CLR 26/15 A3005 RMK AO2 T02620145
KSNK 270655Z AUTO 17007KT 10SM CLR 26/15 A3005 RMK AO2 T02610146
KSNK 270635Z AUTO 17006KT 10SM CLR 26/15 A3005 RMK AO2 T02600145
KSNK 270615Z AUTO 17005KT 10SM CLR 26/15 A3005 RMK AO2 T02640145
KSNK 270555Z AUTO 16006KT 10SM CLR 27/14 A3005 RMK AO2 T02670144
KSNK 270535Z AUTO 15005KT 10SM CLR 27/14 A3005 RMK AO2 T02730142
KSNK 270515Z AUTO 17005KT 10SM CLR 28/14 A3005 RMK AO2 T02800142
KSNK 270455Z AUTO 17006KT 10SM CLR 28/14 A3005 RMK AO2 T02810143
KSNK 270435Z AUTO 16007KT 10SM CLR 29/14 A3005 RMK AO2 T02870143
KSNK 270415Z AUTO 16008KT 10SM CLR 29/14 A3005 RMK AO2 T02940142
KSNK 270355Z AUTO 16009KT 10SM CLR 30/14 A3004 RMK AO2 T02990142
KSNK 270335Z AUTO 15010KT 10SM CLR 30/14 A3003 RMK AO2 T03040142
KSNK 270315Z AUTO 15008KT 10SM CLR 31/14 A3003 RMK AO2 T03100143
KSNK 270255Z AUTO 15009KT 10SM CLR 31/14 A3003 RMK AO2 T03120144
KSNK 270235Z AUTO 14008KT 10SM CLR 32/14 A3003 RMK AO2 T03180142
KSNK 270215Z AUTO 15009KT 10SM CLR 33/14 A3002 RMK AO2 T03260140
KSNK 270155Z AUTO 15009KT 10SM CLR 34/13 A3002 RMK AO2 T03350134
KSNK 270135Z AUTO 15010KT 10SM CLR 34/13 A3001 RMK AO2 T03440131
KSNK 270115Z AUTO 15011G15KT 10SM CLR 35/13 A3001 RMK AO2 T03490132
KSNK 270055Z AUTO 15013KT 10SM CLR 35/13 A3000 RMK AO2 T03540133
KSNK 270035Z AUTO 15015G20KT 10SM CLR 36/14 A3000 RMK AO2 T03570137
KSNK 270015Z AUTO 15015G18KT 10SM CLR 36/14 A2999 RMK AO2 T03600140
KSNK 262355Z AUTO 15013KT 10SM CLR 36/14 A2999 RMK AO2 T03630139
KSNK 262335Z AUTO 17009G15KT 10SM CLR 36/14 A2999 RMK AO2 T03630140
KSNK 262315Z AUTO 13009G17KT 10SM SCT095 37/14 A2999 RMK AO2 T03660141
KSNK 262255Z AUTO 18014G19KT 10SM SCT095 37/14 A3000 RMK AO2 T03670141
KSNK 262235Z AUTO 19008G14KT 10SM SCT095 37/14 A3000 RMK AO2 T03650142
KSNK 262215Z AUTO 18006G17KT 10SM SCT095 36/14 A3001 RMK AO2 T03640142
KSNK 262155Z AUTO 18011G25KT 10SM CLR 37/14 A3001 RMK AO2 T03670143
KSNK 262135Z AUTO 15009G19KT 10SM SCT090 37/14 A3002 RMK AO2 T03680144
KSNK 262115Z AUTO 15012G23KT 10SM SCT090 37/14 A3002 RMK AO2 T03680143
KSNK 262055Z AUTO 15010G27KT 10SM SCT090 36/14 A3003 RMK AO2 T03630142
KSNK 262035Z AUTO 20009G19KT 10SM CLR 36/15 A3004 RMK AO2 LTG DSNT W T03610148
KSNK 262015Z AUTO 21015G19KT 10SM SCT080 36/15 A3005 RMK AO2 T03600152
KSNK 261955Z AUTO 16008G16KT 10SM SCT080 36/16 A3005 RMK AO2 T03560155
KSNK 261935Z AUTO 16014G18KT 10SM SCT080 36/16 A3006 RMK AO2 T03560159
KSNK 261915Z AUTO 19011G18KT 10SM CLR 35/16 A3007 RMK AO2 T03510159
KSNK 261855Z AUTO 16008G19KT 10SM CLR 35/16 A3008 RMK AO2 T03460163
KSNK 261835Z AUTO 19013KT 10SM CLR 34/17 A3008 RMK AO2 T03440167
KSNK 261815Z AUTO 17014G18KT 10SM CLR 34/17 A3009 RMK AO2 T03400168
KSNK 261755Z AUTO 18012G19KT 10SM CLR 34/17 A3010 RMK AO2 T03360173
KSNK 261735Z AUTO 20013KT 10SM CLR 33/18 A3010 RMK AO2 T03300176
KSNK 261715Z AUTO 17014G18KT 10SM CLR 32/18 A3010 RMK AO2 T03240179
KSNK 261655Z AUTO 18013G17KT 10SM CLR 32/18 A3011 RMK AO2 T03190183
KSNK 261635Z AUTO 18012G18KT 10SM CLR 31/19 A3012 RMK AO2 T03120186